sensor_id;sensor_type;location;lat;lon;timestamp;pressure;altitude;pressure_sealevel;temperature
65600;BMP280;52272;-29.642;-50.764;2022-07-22T00:01:50;100854.69;;;23.36
65600;BMP280;52272;-29.642;-50.764;2022-07-22T00:04:20;100834.19;;;23.03
65600;BMP280;52272;-29.642;-50.764;2022-07-22T00:06:51;100779.97;;;22.37
65600;BMP280;52272;-29.642;-50.764;2022-07-22T00:09:21;100844.00;;;22.51
65600;BMP280;52272;-29.642;-50.764;2022-07-22T00:11:52;100847.00;;;22.24
65600;BMP280;52272;-29.642;-50.764;2022-07-22T00:14:21;100854.34;;;22.53
65600;BMP280;52272;-29.642;-50.764;2022-07-22T00:16:52;100844.63;;;22.39
65600;BMP280;52272;-29.642;-50.764;2022-07-22T00:19:22;100853.78;;;22.36
65600;BMP280;52272;-29.642;-50.764;2022-07-22T00:21:54;100845.72;;;22.06
65600;BMP280;52272;-29.642;-50.764;2022-07-22T00:24:26;100842.34;;;22.24
65600;BMP280;52272;-29.642;-50.764;2022-07-22T00:26:57;100810.78;;;22.21
65600;BMP280;52272;-29.642;-50.764;2022-07-22T00:29:27;100849.97;;;22.26
65600;BMP280;52272;-29.642;-50.764;2022-07-22T00:31:57;100845.38;;;22.39
65600;BMP280;52272;-29.642;-50.764;2022-07-22T00:34:27;100849.88;;;22.55
65600;BMP280;52272;-29.642;-50.764;2022-07-22T00:36:58;100845.75;;;22.25
65600;BMP280;52272;-29.642;-50.764;2022-07-22T00:39:28;100846.56;;;22.20
65600;BMP280;52272;-29.642;-50.764;2022-07-22T00:41:58;100851.19;;;22.25
65600;BMP280;52272;-29.642;-50.764;2022-07-22T00:44:33;100857.88;;;22.24
65600;BMP280;52272;-29.642;-50.764;2022-07-22T00:47:07;100857.41;;;22.20
65600;BMP280;52272;-29.642;-50.764;2022-07-22T00:49:38;100865.69;;;22.33
65600;BMP280;52272;-29.642;-50.764;2022-07-22T00:52:08;100855.81;;;22.06
65600;BMP280;52272;-29.642;-50.764;2022-07-22T00:54:40;100867.88;;;21.81
65600;BMP280;52272;-29.642;-50.764;2022-07-22T00:57:10;100878.97;;;21.83
65600;BMP280;52272;-29.642;-50.764;2022-07-22T00:59:41;100881.84;;;22.20
65600;BMP280;52272;-29.642;-50.764;2022-07-22T01:02:12;100869.06;;;22.39
65600;BMP280;52272;-29.642;-50.764;2022-07-22T01:04:42;100864.09;;;22.43
65600;BMP280;52272;-29.642;-50.764;2022-07-22T01:07:14;100855.34;;;22.50
65600;BMP280;52272;-29.642;-50.764;2022-07-22T01:09:45;100864.31;;;22.63
65600;BMP280;52272;-29.642;-50.764;2022-07-22T01:12:15;100853.31;;;22.74
65600;BMP280;52272;-29.642;-50.764;2022-07-22T01:14:46;100848.28;;;22.83
65600;BMP280;52272;-29.642;-50.764;2022-07-22T01:17:17;100842.41;;;22.98
65600;BMP280;52272;-29.642;-50.764;2022-07-22T01:19:48;100854.31;;;22.95
65600;BMP280;52272;-29.642;-50.764;2022-07-22T01:22:20;100847.34;;;22.39
65600;BMP280;52272;-29.642;-50.764;2022-07-22T01:24:51;100838.06;;;22.29
65600;BMP280;52272;-29.642;-50.764;2022-07-22T01:27:20;100852.72;;;22.20
65600;BMP280;52272;-29.642;-50.764;2022-07-22T01:29:51;100859.31;;;22.49
65600;BMP280;52272;-29.642;-50.764;2022-07-22T01:32:21;100868.66;;;22.53
65600;BMP280;52272;-29.642;-50.764;2022-07-22T01:34:52;100843.06;;;22.25
65600;BMP280;52272;-29.642;-50.764;2022-07-22T01:37:22;100883.97;;;22.51
65600;BMP280;52272;-29.642;-50.764;2022-07-22T01:39:52;100875.56;;;22.30
65600;BMP280;52272;-29.642;-50.764;2022-07-22T01:42:24;100866.69;;;22.30
65600;BMP280;52272;-29.642;-50.764;2022-07-22T01:44:55;100873.03;;;22.38
65600;BMP280;52272;-29.642;-50.764;2022-07-22T01:47:26;100880.53;;;22.50
65600;BMP280;52272;-29.642;-50.764;2022-07-22T01:49:57;100878.66;;;22.64
65600;BMP280;52272;-29.642;-50.764;2022-07-22T01:52:27;100876.63;;;22.70
65600;BMP280;52272;-29.642;-50.764;2022-07-22T01:54:57;100825.38;;;21.94
65600;BMP280;52272;-29.642;-50.764;2022-07-22T01:57:28;100853.22;;;22.19
65600;BMP280;52272;-29.642;-50.764;2022-07-22T02:00:04;100861.69;;;21.86
65600;BMP280;52272;-29.642;-50.764;2022-07-22T02:02:43;100857.38;;;21.72
65600;BMP280;52272;-29.642;-50.764;2022-07-22T02:05:14;100846.16;;;21.86
65600;BMP280;52272;-29.642;-50.764;2022-07-22T02:07:44;100834.56;;;21.86
65600;BMP280;52272;-29.642;-50.764;2022-07-22T02:10:18;100834.78;;;21.88
65600;BMP280;52272;-29.642;-50.764;2022-07-22T02:12:48;100837.41;;;21.99
65600;BMP280;52272;-29.642;-50.764;2022-07-22T02:15:19;100839.09;;;22.02
65600;BMP280;52272;-29.642;-50.764;2022-07-22T02:17:49;100819.59;;;21.79
65600;BMP280;52272;-29.642;-50.764;2022-07-22T02:20:21;100834.75;;;21.64
65600;BMP280;52272;-29.642;-50.764;2022-07-22T02:22:52;100834.28;;;21.60
65600;BMP280;52272;-29.642;-50.764;2022-07-22T02:25:22;100846.75;;;21.39
65600;BMP280;52272;-29.642;-50.764;2022-07-22T02:27:52;100835.72;;;21.32
65600;BMP280;52272;-29.642;-50.764;2022-07-22T02:30:22;100852.53;;;21.19
65600;BMP280;52272;-29.642;-50.764;2022-07-22T02:32:52;100848.88;;;21.52
65600;BMP280;52272;-29.642;-50.764;2022-07-22T02:35:23;100822.53;;;21.52
65600;BMP280;52272;-29.642;-50.764;2022-07-22T02:37:55;100843.34;;;21.68
65600;BMP280;52272;-29.642;-50.764;2022-07-22T02:40:25;100848.31;;;21.64
65600;BMP280;52272;-29.642;-50.764;2022-07-22T02:42:55;100855.81;;;21.82
65600;BMP280;52272;-29.642;-50.764;2022-07-22T02:45:29;100851.84;;;21.83
65600;BMP280;52272;-29.642;-50.764;2022-07-22T02:47:59;100841.25;;;21.50
65600;BMP280;52272;-29.642;-50.764;2022-07-22T02:50:32;100850.66;;;21.73
65600;BMP280;52272;-29.642;-50.764;2022-07-22T02:53:04;100841.53;;;21.06
65600;BMP280;52272;-29.642;-50.764;2022-07-22T02:55:38;100848.31;;;21.29
65600;BMP280;52272;-29.642;-50.764;2022-07-22T02:58:10;100854.72;;;21.26
65600;BMP280;52272;-29.642;-50.764;2022-07-22T03:00:42;100863.81;;;21.29
65600;BMP280;52272;-29.642;-50.764;2022-07-22T03:03:13;100862.00;;;21.42
65600;BMP280;52272;-29.642;-50.764;2022-07-22T03:05:44;100847.75;;;21.36
65600;BMP280;52272;-29.642;-50.764;2022-07-22T03:08:34;100845.63;;;21.24
65600;BMP280;52272;-29.642;-50.764;2022-07-22T03:11:04;100849.44;;;20.99
65600;BMP280;52272;-29.642;-50.764;2022-07-22T03:13:34;100832.41;;;21.04
65600;BMP280;52272;-29.642;-50.764;2022-07-22T03:16:04;100845.88;;;21.20
65600;BMP280;52272;-29.642;-50.764;2022-07-22T03:18:35;100832.81;;;21.24
65600;BMP280;52272;-29.642;-50.764;2022-07-22T03:21:06;100828.94;;;21.14
65600;BMP280;52272;-29.642;-50.764;2022-07-22T03:23:36;100831.63;;;21.14
65600;BMP280;52272;-29.642;-50.764;2022-07-22T03:26:07;100825.13;;;21.28
65600;BMP280;52272;-29.642;-50.764;2022-07-22T03:28:37;100823.81;;;21.40
65600;BMP280;52272;-29.642;-50.764;2022-07-22T03:31:08;100817.09;;;21.12
65600;BMP280;52272;-29.642;-50.764;2022-07-22T03:33:38;100780.75;;;21.02
65600;BMP280;52272;-29.642;-50.764;2022-07-22T03:36:09;100829.56;;;21.31
65600;BMP280;52272;-29.642;-50.764;2022-07-22T03:38:42;100818.31;;;21.16
65600;BMP280;52272;-29.642;-50.764;2022-07-22T03:41:13;100801.06;;;21.19
65600;BMP280;52272;-29.642;-50.764;2022-07-22T03:43:43;100796.97;;;21.07
65600;BMP280;52272;-29.642;-50.764;2022-07-22T03:46:14;100792.69;;;21.17
65600;BMP280;52272;-29.642;-50.764;2022-07-22T03:48:44;100806.94;;;21.23
65600;BMP280;52272;-29.642;-50.764;2022-07-22T03:51:15;100820.97;;;21.27
65600;BMP280;52272;-29.642;-50.764;2022-07-22T03:53:45;100823.25;;;21.18
65600;BMP280;52272;-29.642;-50.764;2022-07-22T03:56:16;100819.34;;;21.08
65600;BMP280;52272;-29.642;-50.764;2022-07-22T03:58:48;100808.03;;;21.09
65600;BMP280;52272;-29.642;-50.764;2022-07-22T04:01:17;100794.91;;;21.19
65600;BMP280;52272;-29.642;-50.764;2022-07-22T04:03:48;100804.78;;;21.16
65600;BMP280;52272;-29.642;-50.764;2022-07-22T04:06:26;100801.56;;;21.18
65600;BMP280;52272;-29.642;-50.764;2022-07-22T04:09:07;100796.16;;;21.18
65600;BMP280;52272;-29.642;-50.764;2022-07-22T04:11:40;100792.94;;;21.19
65600;BMP280;52272;-29.642;-50.764;2022-07-22T04:14:11;100788.22;;;21.20
65600;BMP280;52272;-29.642;-50.764;2022-07-22T04:16:41;100781.41;;;21.08
65600;BMP280;52272;-29.642;-50.764;2022-07-22T04:19:14;100763.50;;;20.99
65600;BMP280;52272;-29.642;-50.764;2022-07-22T04:21:56;100772.78;;;20.69
65600;BMP280;52272;-29.642;-50.764;2022-07-22T04:24:29;100769.94;;;20.45
65600;BMP280;52272;-29.642;-50.764;2022-07-22T04:27:00;100754.25;;;20.21
65600;BMP280;52272;-29.642;-50.764;2022-07-22T04:29:31;100763.50;;;20.53
65600;BMP280;52272;-29.642;-50.764;2022-07-22T04:32:01;100762.09;;;20.41
65600;BMP280;52272;-29.642;-50.764;2022-07-22T04:34:31;100761.34;;;20.30
65600;BMP280;52272;-29.642;-50.764;2022-07-22T04:37:02;100761.34;;;20.41
65600;BMP280;52272;-29.642;-50.764;2022-07-22T04:39:36;100751.97;;;20.42
65600;BMP280;52272;-29.642;-50.764;2022-07-22T04:42:06;100755.56;;;20.66
65600;BMP280;52272;-29.642;-50.764;2022-07-22T04:44:38;100747.16;;;20.75
65600;BMP280;52272;-29.642;-50.764;2022-07-22T04:47:08;100753.06;;;20.74
65600;BMP280;52272;-29.642;-50.764;2022-07-22T04:49:41;100754.50;;;20.80
65600;BMP280;52272;-29.642;-50.764;2022-07-22T04:52:12;100745.13;;;20.87
65600;BMP280;52272;-29.642;-50.764;2022-07-22T04:54:48;100758.72;;;20.81
65600;BMP280;52272;-29.642;-50.764;2022-07-22T04:57:21;100762.47;;;20.67
65600;BMP280;52272;-29.642;-50.764;2022-07-22T04:59:52;100761.94;;;20.74
65600;BMP280;52272;-29.642;-50.764;2022-07-22T05:02:24;100764.94;;;20.65
65600;BMP280;52272;-29.642;-50.764;2022-07-22T05:04:55;100757.03;;;20.67
65600;BMP280;52272;-29.642;-50.764;2022-07-22T05:07:29;100758.34;;;20.55
65600;BMP280;52272;-29.642;-50.764;2022-07-22T05:09:59;100743.81;;;20.53
65600;BMP280;52272;-29.642;-50.764;2022-07-22T05:12:30;100753.19;;;20.46
65600;BMP280;52272;-29.642;-50.764;2022-07-22T05:15:00;100751.69;;;20.56
65600;BMP280;52272;-29.642;-50.764;2022-07-22T05:17:31;100738.25;;;20.29
65600;BMP280;52272;-29.642;-50.764;2022-07-22T05:20:14;100729.72;;;19.98
65600;BMP280;52272;-29.642;-50.764;2022-07-22T05:22:47;100723.59;;;19.92
65600;BMP280;52272;-29.642;-50.764;2022-07-22T05:25:23;100718.44;;;19.94
65600;BMP280;52272;-29.642;-50.764;2022-07-22T05:27:55;100715.50;;;19.86
65600;BMP280;52272;-29.642;-50.764;2022-07-22T05:30:46;100706.44;;;19.84
65600;BMP280;52272;-29.642;-50.764;2022-07-22T05:33:19;100705.16;;;19.85
65600;BMP280;52272;-29.642;-50.764;2022-07-22T05:35:59;100702.69;;;20.09
65600;BMP280;52272;-29.642;-50.764;2022-07-22T05:38:36;100693.59;;;20.01
65600;BMP280;52272;-29.642;-50.764;2022-07-22T05:41:07;100684.19;;;20.18
65600;BMP280;52272;-29.642;-50.764;2022-07-22T05:43:38;100676.81;;;20.18
65600;BMP280;52272;-29.642;-50.764;2022-07-22T05:46:09;100658.63;;;20.13
65600;BMP280;52272;-29.642;-50.764;2022-07-22T05:48:40;100688.09;;;20.28
65600;BMP280;52272;-29.642;-50.764;2022-07-22T05:51:14;100686.34;;;20.30
65600;BMP280;52272;-29.642;-50.764;2022-07-22T05:53:44;100680.50;;;20.21
65600;BMP280;52272;-29.642;-50.764;2022-07-22T05:56:14;100692.72;;;20.38
65600;BMP280;52272;-29.642;-50.764;2022-07-22T05:58:48;100688.09;;;20.33
65600;BMP280;52272;-29.642;-50.764;2022-07-22T06:01:22;100686.81;;;20.34
65600;BMP280;52272;-29.642;-50.764;2022-07-22T06:03:56;100683.84;;;20.38
65600;BMP280;52272;-29.642;-50.764;2022-07-22T06:06:26;100675.53;;;20.30
65600;BMP280;52272;-29.642;-50.764;2022-07-22T06:08:57;100677.47;;;20.35
65600;BMP280;52272;-29.642;-50.764;2022-07-22T06:11:28;100652.59;;;19.86
65600;BMP280;52272;-29.642;-50.764;2022-07-22T06:13:59;100655.97;;;20.03
65600;BMP280;52272;-29.642;-50.764;2022-07-22T06:16:29;100669.41;;;20.24
65600;BMP280;52272;-29.642;-50.764;2022-07-22T06:19:02;100661.78;;;20.28
65600;BMP280;52272;-29.642;-50.764;2022-07-22T06:21:33;100665.53;;;20.14
65600;BMP280;52272;-29.642;-50.764;2022-07-22T06:24:04;100674.31;;;20.26
65600;BMP280;52272;-29.642;-50.764;2022-07-22T06:26:34;100665.41;;;20.36
65600;BMP280;52272;-29.642;-50.764;2022-07-22T06:29:04;100658.78;;;20.37
65600;BMP280;52272;-29.642;-50.764;2022-07-22T06:31:35;100660.06;;;20.25
65600;BMP280;52272;-29.642;-50.764;2022-07-22T06:34:06;100652.94;;;20.22
65600;BMP280;52272;-29.642;-50.764;2022-07-22T06:36:51;100648.13;;;20.05
65600;BMP280;52272;-29.642;-50.764;2022-07-22T06:39:22;100644.25;;;19.78
65600;BMP280;52272;-29.642;-50.764;2022-07-22T06:41:58;100647.72;;;19.68
65600;BMP280;52272;-29.642;-50.764;2022-07-22T06:44:47;100644.38;;;20.13
65600;BMP280;52272;-29.642;-50.764;2022-07-22T06:47:27;100644.38;;;20.13
65600;BMP280;52272;-29.642;-50.764;2022-07-22T06:49:58;100648.13;;;20.05
65600;BMP280;52272;-29.642;-50.764;2022-07-22T06:52:29;100639.00;;;20.08
65600;BMP280;52272;-29.642;-50.764;2022-07-22T06:55:03;100654.94;;;20.16
65600;BMP280;52272;-29.642;-50.764;2022-07-22T06:57:36;100632.41;;;19.98
65600;BMP280;52272;-29.642;-50.764;2022-07-22T07:00:08;100625.97;;;20.12
65600;BMP280;52272;-29.642;-50.764;2022-07-22T07:03:14;100628.78;;;19.68
65600;BMP280;52272;-29.642;-50.764;2022-07-22T07:06:07;100630.91;;;20.08
65600;BMP280;52272;-29.642;-50.764;2022-07-22T07:09:13;100637.78;;;20.09
65600;BMP280;52272;-29.642;-50.764;2022-07-22T07:11:57;100650.50;;;20.13
65600;BMP280;52272;-29.642;-50.764;2022-07-22T07:15:06;100624.56;;;19.89
65600;BMP280;52272;-29.642;-50.764;2022-07-22T07:18:02;100633.81;;;20.09
65600;BMP280;52272;-29.642;-50.764;2022-07-22T07:20:34;100654.88;;;20.27
65600;BMP280;52272;-29.642;-50.764;2022-07-22T07:23:09;100661.78;;;20.17
65600;BMP280;52272;-29.642;-50.764;2022-07-22T07:25:45;100655.41;;;20.20
65600;BMP280;52272;-29.642;-50.764;2022-07-22T07:28:17;100649.03;;;20.18
65600;BMP280;52272;-29.642;-50.764;2022-07-22T07:31:05;100649.06;;;20.07
65600;BMP280;52272;-29.642;-50.764;2022-07-22T07:33:36;100651.25;;;20.19
65600;BMP280;52272;-29.642;-50.764;2022-07-22T07:36:07;100653.72;;;20.12
65600;BMP280;52272;-29.642;-50.764;2022-07-22T07:38:43;100649.09;;;20.02
65600;BMP280;52272;-29.642;-50.764;2022-07-22T07:41:16;100657.06;;;20.34
65600;BMP280;52272;-29.642;-50.764;2022-07-22T07:43:50;100654.59;;;20.31
65600;BMP280;52272;-29.642;-50.764;2022-07-22T07:46:21;100628.25;;;19.91
65600;BMP280;52272;-29.642;-50.764;2022-07-22T07:48:52;100635.41;;;19.83
65600;BMP280;52272;-29.642;-50.764;2022-07-22T07:51:23;100631.47;;;19.79
65600;BMP280;52272;-29.642;-50.764;2022-07-22T07:53:53;100580.22;;;19.29
65600;BMP280;52272;-29.642;-50.764;2022-07-22T07:56:24;100595.94;;;19.42
65600;BMP280;52272;-29.642;-50.764;2022-07-22T07:58:55;100618.22;;;19.59
65600;BMP280;52272;-29.642;-50.764;2022-07-22T08:01:46;100622.63;;;19.84
65600;BMP280;52272;-29.642;-50.764;2022-07-22T08:04:27;100624.06;;;19.90
65600;BMP280;52272;-29.642;-50.764;2022-07-22T08:07:10;100617.19;;;19.89
65600;BMP280;52272;-29.642;-50.764;2022-07-22T08:09:43;100618.84;;;20.09
65600;BMP280;52272;-29.642;-50.764;2022-07-22T08:12:39;100636.78;;;20.12
65600;BMP280;52272;-29.642;-50.764;2022-07-22T08:15:29;100632.13;;;20.01
65600;BMP280;52272;-29.642;-50.764;2022-07-22T08:18:06;100629.88;;;20.10
65600;BMP280;52272;-29.642;-50.764;2022-07-22T08:20:36;100656.66;;;20.14
65600;BMP280;52272;-29.642;-50.764;2022-07-22T08:23:06;100663.94;;;20.41
65600;BMP280;52272;-29.642;-50.764;2022-07-22T08:25:39;100656.50;;;20.47
65600;BMP280;52272;-29.642;-50.764;2022-07-22T08:28:10;100634.47;;;20.32
65600;BMP280;52272;-29.642;-50.764;2022-07-22T08:30:41;100656.16;;;20.21
65600;BMP280;52272;-29.642;-50.764;2022-07-22T08:33:13;100679.44;;;20.40
65600;BMP280;52272;-29.642;-50.764;2022-07-22T08:35:44;100673.13;;;20.10
65600;BMP280;52272;-29.642;-50.764;2022-07-22T08:38:14;100677.00;;;20.31
65600;BMP280;52272;-29.642;-50.764;2022-07-22T08:40:46;100667.84;;;19.78
65600;BMP280;52272;-29.642;-50.764;2022-07-22T08:43:16;100673.94;;;19.89
65600;BMP280;52272;-29.642;-50.764;2022-07-22T08:45:47;100694.09;;;19.94
65600;BMP280;52272;-29.642;-50.764;2022-07-22T08:48:18;100687.34;;;20.27
65600;BMP280;52272;-29.642;-50.764;2022-07-22T08:51:02;100682.22;;;20.24
65600;BMP280;52272;-29.642;-50.764;2022-07-22T08:53:47;100666.44;;;20.33
65600;BMP280;52272;-29.642;-50.764;2022-07-22T08:56:18;100672.00;;;20.46
65600;BMP280;52272;-29.642;-50.764;2022-07-22T08:58:50;100668.06;;;20.47
65600;BMP280;52272;-29.642;-50.764;2022-07-22T09:01:20;100667.78;;;20.00
65600;BMP280;52272;-29.642;-50.764;2022-07-22T09:03:55;100668.81;;;19.86
65600;BMP280;52272;-29.642;-50.764;2022-07-22T09:06:33;100694.09;;;19.94
65600;BMP280;52272;-29.642;-50.764;2022-07-22T09:09:07;100709.00;;;20.22
65600;BMP280;52272;-29.642;-50.764;2022-07-22T09:12:07;100699.47;;;20.10
65600;BMP280;52272;-29.642;-50.764;2022-07-22T09:14:59;100681.34;;;19.89
65600;BMP280;52272;-29.642;-50.764;2022-07-22T09:17:52;100686.03;;;19.72
65600;BMP280;52272;-29.642;-50.764;2022-07-22T09:20:40;100691.72;;;19.46
65600;BMP280;52272;-29.642;-50.764;2022-07-22T09:23:39;100694.94;;;19.45
65600;BMP280;52272;-29.642;-50.764;2022-07-22T09:26:37;100696.38;;;19.35
65600;BMP280;52272;-29.642;-50.764;2022-07-22T09:29:26;100704.22;;;19.66
65600;BMP280;52272;-29.642;-50.764;2022-07-22T09:32:12;100706.44;;;19.73
65600;BMP280;52272;-29.642;-50.764;2022-07-22T09:35:02;100712.56;;;19.79
65600;BMP280;52272;-29.642;-50.764;2022-07-22T09:37:52;100722.38;;;19.93
65600;BMP280;52272;-29.642;-50.764;2022-07-22T09:40:26;100732.19;;;19.85
65600;BMP280;52272;-29.642;-50.764;2022-07-22T09:43:04;100735.16;;;19.87
65600;BMP280;52272;-29.642;-50.764;2022-07-22T09:45:35;100741.06;;;19.80
65600;BMP280;52272;-29.642;-50.764;2022-07-22T09:48:05;100749.69;;;19.84
65600;BMP280;52272;-29.642;-50.764;2022-07-22T09:50:58;100749.44;;;19.71
65600;BMP280;52272;-29.642;-50.764;2022-07-22T09:53:42;100756.28;;;20.05
65600;BMP280;52272;-29.642;-50.764;2022-07-22T09:56:16;100757.00;;;20.00
65600;BMP280;52272;-29.642;-50.764;2022-07-22T09:58:47;100752.34;;;19.95
65600;BMP280;52272;-29.642;-50.764;2022-07-22T10:01:29;100750.88;;;19.94
65600;BMP280;52272;-29.642;-50.764;2022-07-22T10:04:01;100751.16;;;19.79
65600;BMP280;52272;-29.642;-50.764;2022-07-22T10:06:34;100768.59;;;19.84
65600;BMP280;52272;-29.642;-50.764;2022-07-22T10:09:14;100767.34;;;19.68
65600;BMP280;52272;-29.642;-50.764;2022-07-22T10:11:45;100773.03;;;19.87
65600;BMP280;52272;-29.642;-50.764;2022-07-22T10:14:20;100778.44;;;19.92
65600;BMP280;52272;-29.642;-50.764;2022-07-22T10:16:55;100771.31;;;19.78
65600;BMP280;52272;-29.642;-50.764;2022-07-22T10:19:32;100782.56;;;19.93
65600;BMP280;52272;-29.642;-50.764;2022-07-22T10:22:02;100793.16;;;19.64
65600;BMP280;52272;-29.642;-50.764;2022-07-22T10:24:32;100777.94;;;19.83
65600;BMP280;52272;-29.642;-50.764;2022-07-22T10:27:03;100783.84;;;19.65
65600;BMP280;52272;-29.642;-50.764;2022-07-22T10:29:43;100783.31;;;19.88
65600;BMP280;52272;-29.642;-50.764;2022-07-22T10:35:20;100795.13;;;20.02
65600;BMP280;52272;-29.642;-50.764;2022-07-22T10:37:55;100749.69;;;19.84
65600;BMP280;52272;-29.642;-50.764;2022-07-22T10:40:29;100801.03;;;19.84
65600;BMP280;52272;-29.642;-50.764;2022-07-22T10:43:02;100756.06;;;19.53
65600;BMP280;52272;-29.642;-50.764;2022-07-22T10:45:38;100813.28;;;20.28
65600;BMP280;52272;-29.642;-50.764;2022-07-22T10:48:11;100809.59;;;20.20
65600;BMP280;52272;-29.642;-50.764;2022-07-22T10:50:44;100811.91;;;20.62
65600;BMP280;52272;-29.642;-50.764;2022-07-22T10:53:17;100809.06;;;20.95
65600;BMP280;52272;-29.642;-50.764;2022-07-22T10:56:06;100806.91;;;21.29
65600;BMP280;52272;-29.642;-50.764;2022-07-22T11:01:10;100774.53;;;21.71
65600;BMP280;52272;-29.642;-50.764;2022-07-22T11:03:43;100805.63;;;22.18
65600;BMP280;52272;-29.642;-50.764;2022-07-22T11:06:16;100804.28;;;22.06
65600;BMP280;52272;-29.642;-50.764;2022-07-22T11:08:49;100808.63;;;21.90
65600;BMP280;52272;-29.642;-50.764;2022-07-22T11:11:35;100806.16;;;21.63
65600;BMP280;52272;-29.642;-50.764;2022-07-22T11:14:12;100815.34;;;21.84
65600;BMP280;52272;-29.642;-50.764;2022-07-22T11:16:45;100803.09;;;22.01
65600;BMP280;52272;-29.642;-50.764;2022-07-22T11:19:29;100818.22;;;22.15
65600;BMP280;52272;-29.642;-50.764;2022-07-22T11:22:04;100825.81;;;22.65
65600;BMP280;52272;-29.642;-50.764;2022-07-22T11:24:36;100822.16;;;23.30
65600;BMP280;52272;-29.642;-50.764;2022-07-22T11:27:14;100817.50;;;23.88
65600;BMP280;52272;-29.642;-50.764;2022-07-22T11:29:50;100810.78;;;24.02
65600;BMP280;52272;-29.642;-50.764;2022-07-22T11:32:27;100813.06;;;24.37
65600;BMP280;52272;-29.642;-50.764;2022-07-22T11:35:00;100815.19;;;24.05
65600;BMP280;52272;-29.642;-50.764;2022-07-22T11:37:31;100813.88;;;24.06
65600;BMP280;52272;-29.642;-50.764;2022-07-22T11:40:05;100808.09;;;24.48
65600;BMP280;52272;-29.642;-50.764;2022-07-22T11:42:37;100816.56;;;24.71
65600;BMP280;52272;-29.642;-50.764;2022-07-22T11:45:08;100823.69;;;24.61
65600;BMP280;52272;-29.642;-50.764;2022-07-22T11:47:49;100817.25;;;24.84
65600;BMP280;52272;-29.642;-50.764;2022-07-22T11:50:32;100825.16;;;25.16
65600;BMP280;52272;-29.642;-50.764;2022-07-22T11:53:03;100835.47;;;25.50
65600;BMP280;52272;-29.642;-50.764;2022-07-22T11:55:34;100833.50;;;25.30
65600;BMP280;52272;-29.642;-50.764;2022-07-22T11:58:06;100831.84;;;24.74
65600;BMP280;52272;-29.642;-50.764;2022-07-22T12:00:36;100820.88;;;24.87
65600;BMP280;52272;-29.642;-50.764;2022-07-22T12:03:08;100829.50;;;24.78
65600;BMP280;52272;-29.642;-50.764;2022-07-22T12:05:39;100827.47;;;24.91
65600;BMP280;52272;-29.642;-50.764;2022-07-22T12:08:10;100821.66;;;25.08
65600;BMP280;52272;-29.642;-50.764;2022-07-22T12:10:40;100816.94;;;24.88
65600;BMP280;52272;-29.642;-50.764;2022-07-22T12:13:15;100823.75;;;25.02
65600;BMP280;52272;-29.642;-50.764;2022-07-22T12:15:45;100834.53;;;25.07
65600;BMP280;52272;-29.642;-50.764;2022-07-22T12:18:22;100835.16;;;25.82
65600;BMP280;52272;-29.642;-50.764;2022-07-22T12:20:54;100844.53;;;26.44
65600;BMP280;52272;-29.642;-50.764;2022-07-22T12:23:25;100841.19;;;26.88
65600;BMP280;52272;-29.642;-50.764;2022-07-22T12:25:58;100844.88;;;27.06
65600;BMP280;52272;-29.642;-50.764;2022-07-22T12:28:29;100852.69;;;27.46
65600;BMP280;52272;-29.642;-50.764;2022-07-22T12:30:59;100833.34;;;27.59
65600;BMP280;52272;-29.642;-50.764;2022-07-22T12:33:30;100842.25;;;27.67
65600;BMP280;52272;-29.642;-50.764;2022-07-22T12:36:06;100833.53;;;27.54
65600;BMP280;52272;-29.642;-50.764;2022-07-22T12:38:37;100837.22;;;28.03
65600;BMP280;52272;-29.642;-50.764;2022-07-22T12:41:26;100842.66;;;28.18
65600;BMP280;52272;-29.642;-50.764;2022-07-22T12:43:58;100855.25;;;27.67
65600;BMP280;52272;-29.642;-50.764;2022-07-22T12:46:29;100859.09;;;28.26
65600;BMP280;52272;-29.642;-50.764;2022-07-22T12:49:00;100857.59;;;28.24
65600;BMP280;52272;-29.642;-50.764;2022-07-22T12:51:30;100854.91;;;28.81
65600;BMP280;52272;-29.642;-50.764;2022-07-22T12:54:04;100862.66;;;29.74
65600;BMP280;52272;-29.642;-50.764;2022-07-22T12:56:34;100857.13;;;30.34
65600;BMP280;52272;-29.642;-50.764;2022-07-22T12:59:05;100865.16;;;31.59
65600;BMP280;52272;-29.642;-50.764;2022-07-22T13:01:36;100872.97;;;31.81
65600;BMP280;52272;-29.642;-50.764;2022-07-22T13:04:06;100867.75;;;31.47
65600;BMP280;52272;-29.642;-50.764;2022-07-22T13:06:37;100869.47;;;31.33
65600;BMP280;52272;-29.642;-50.764;2022-07-22T13:09:07;100835.47;;;30.38
65600;BMP280;52272;-29.642;-50.764;2022-07-22T13:11:46;100870.97;;;30.53
65600;BMP280;52272;-29.642;-50.764;2022-07-22T13:14:16;100858.22;;;30.22
65600;BMP280;52272;-29.642;-50.764;2022-07-22T13:16:47;100861.69;;;29.62
65600;BMP280;52272;-29.642;-50.764;2022-07-22T13:19:18;100868.25;;;30.27
65600;BMP280;52272;-29.642;-50.764;2022-07-22T13:21:49;100868.97;;;29.67
65600;BMP280;52272;-29.642;-50.764;2022-07-22T13:24:19;100867.41;;;30.08
65600;BMP280;52272;-29.642;-50.764;2022-07-22T13:26:51;100873.31;;;29.70
65600;BMP280;52272;-29.642;-50.764;2022-07-22T13:29:21;100866.22;;;29.50
65600;BMP280;52272;-29.642;-50.764;2022-07-22T13:31:52;100861.81;;;29.14
65600;BMP280;52272;-29.642;-50.764;2022-07-22T13:34:42;100857.13;;;28.75
65600;BMP280;52272;-29.642;-50.764;2022-07-22T13:37:13;100863.66;;;28.55
65600;BMP280;52272;-29.642;-50.764;2022-07-22T13:39:44;100862.94;;;28.54
65600;BMP280;52272;-29.642;-50.764;2022-07-22T13:42:17;100870.03;;;28.26
65600;BMP280;52272;-29.642;-50.764;2022-07-22T13:44:49;100881.16;;;29.16
65600;BMP280;52272;-29.642;-50.764;2022-07-22T13:47:21;100863.31;;;29.07
65600;BMP280;52272;-29.642;-50.764;2022-07-22T13:49:52;100862.97;;;28.79
65600;BMP280;52272;-29.642;-50.764;2022-07-22T13:52:24;100864.59;;;28.82
65600;BMP280;52272;-29.642;-50.764;2022-07-22T13:54:54;100849.09;;;28.77
65600;BMP280;52272;-29.642;-50.764;2022-07-22T13:57:25;100865.44;;;28.60
65600;BMP280;52272;-29.642;-50.764;2022-07-22T13:59:55;100867.38;;;28.50
65600;BMP280;52272;-29.642;-50.764;2022-07-22T14:02:26;100849.53;;;29.15
65600;BMP280;52272;-29.642;-50.764;2022-07-22T14:04:56;100857.25;;;29.84